sensor_id;sensor_type;location;lat;lon;timestamp;temperature;humidity
19206;DHT22;59358;52.134;5.596;2022-07-29T00:00:25;16.70;99.90
19206;DHT22;59358;52.134;5.596;2022-07-29T00:02:52;16.70;99.90
19206;DHT22;59358;52.134;5.596;2022-07-29T00:05:18;16.60;99.90
19206;DHT22;59358;52.134;5.596;2022-07-29T00:07:45;16.50;99.90
19206;DHT22;59358;52.134;5.596;2022-07-29T00:10:12;16.50;99.90
19206;DHT22;59358;52.134;5.596;2022-07-29T00:12:39;16.50;99.90
19206;DHT22;59358;52.134;5.596;2022-07-29T00:15:08;16.50;99.90
19206;DHT22;59358;52.134;5.596;2022-07-29T00:17:35;16.50;99.90
19206;DHT22;59358;52.134;5.596;2022-07-29T00:20:02;16.50;99.90
19206;DHT22;59358;52.134;5.596;2022-07-29T00:22:29;16.40;99.90
19206;DHT22;59358;52.134;5.596;2022-07-29T00:24:55;16.40;99.90
19206;DHT22;59358;52.134;5.596;2022-07-29T00:27:22;16.30;99.90
19206;DHT22;59358;52.134;5.596;2022-07-29T00:29:49;16.30;99.90
19206;DHT22;59358;52.134;5.596;2022-07-29T00:32:17;16.30;99.90
19206;DHT22;59358;52.134;5.596;2022-07-29T00:34:44;16.30;99.90
19206;DHT22;59358;52.134;5.596;2022-07-29T00:37:28;16.30;99.90
19206;DHT22;59358;52.134;5.596;2022-07-29T00:39:55;16.20;99.90
19206;DHT22;59358;52.134;5.596;2022-07-29T00:42:21;16.20;99.90
19206;DHT22;59358;52.134;5.596;2022-07-29T00:44:48;16.20;99.90
19206;DHT22;59358;52.134;5.596;2022-07-29T00:47:16;16.20;99.90
19206;DHT22;59358;52.134;5.596;2022-07-29T00:49:43;16.10;99.90
19206;DHT22;59358;52.134;5.596;2022-07-29T00:52:11;16.10;99.90
19206;DHT22;59358;52.134;5.596;2022-07-29T00:54:39;16.20;99.90
19206;DHT22;59358;52.134;5.596;2022-07-29T00:57:06;16.10;99.90
19206;DHT22;59358;52.134;5.596;2022-07-29T00:59:33;16.10;99.90
19206;DHT22;59358;52.134;5.596;2022-07-29T01:02:00;16.10;99.90
19206;DHT22;59358;52.134;5.596;2022-07-29T01:04:28;16.00;99.90
19206;DHT22;59358;52.134;5.596;2022-07-29T01:06:56;16.00;99.90
19206;DHT22;59358;52.134;5.596;2022-07-29T01:09:23;16.00;99.90
19206;DHT22;59358;52.134;5.596;2022-07-29T01:11:50;16.00;99.90
19206;DHT22;59358;52.134;5.596;2022-07-29T01:14:18;16.00;99.90
19206;DHT22;59358;52.134;5.596;2022-07-29T01:16:49;16.00;99.90
19206;DHT22;59358;52.134;5.596;2022-07-29T01:19:39;16.00;99.90
19206;DHT22;59358;52.134;5.596;2022-07-29T01:22:26;16.00;99.90
19206;DHT22;59358;52.134;5.596;2022-07-29T01:25:17;15.90;99.90
19206;DHT22;59358;52.134;5.596;2022-07-29T01:28:01;15.90;99.90
19206;DHT22;59358;52.134;5.596;2022-07-29T01:30:36;15.90;99.90
19206;DHT22;59358;52.134;5.596;2022-07-29T01:33:09;15.90;99.90
19206;DHT22;59358;52.134;5.596;2022-07-29T01:35:39;15.90;99.90
19206;DHT22;59358;52.134;5.596;2022-07-29T01:38:09;15.90;99.90
19206;DHT22;59358;52.134;5.596;2022-07-29T01:40:42;15.80;99.90
19206;DHT22;59358;52.134;5.596;2022-07-29T01:43:14;15.80;99.90
19206;DHT22;59358;52.134;5.596;2022-07-29T01:45:46;15.90;99.90
19206;DHT22;59358;52.134;5.596;2022-07-29T01:48:17;15.80;99.90
19206;DHT22;59358;52.134;5.596;2022-07-29T01:50:48;15.80;99.90
19206;DHT22;59358;52.134;5.596;2022-07-29T01:53:21;15.80;99.90
19206;DHT22;59358;52.134;5.596;2022-07-29T01:55:52;15.80;99.90
19206;DHT22;59358;52.134;5.596;2022-07-29T01:58:19;15.80;99.90
19206;DHT22;59358;52.134;5.596;2022-07-29T02:00:48;15.80;99.90
19206;DHT22;59358;52.134;5.596;2022-07-29T02:03:17;15.80;99.90
19206;DHT22;59358;52.134;5.596;2022-07-29T02:05:46;15.70;99.90
19206;DHT22;59358;52.134;5.596;2022-07-29T02:08:15;15.70;99.90
19206;DHT22;59358;52.134;5.596;2022-07-29T02:10:44;15.80;99.90
19206;DHT22;59358;52.134;5.596;2022-07-29T02:13:12;15.80;99.90
19206;DHT22;59358;52.134;5.596;2022-07-29T02:15:42;15.80;99.90
19206;DHT22;59358;52.134;5.596;2022-07-29T02:18:17;15.80;99.90
19206;DHT22;59358;52.134;5.596;2022-07-29T02:20:47;15.80;99.90
19206;DHT22;59358;52.134;5.596;2022-07-29T02:23:18;15.80;99.90
19206;DHT22;59358;52.134;5.596;2022-07-29T02:25:47;15.70;99.90
19206;DHT22;59358;52.134;5.596;2022-07-29T02:28:15;15.80;99.90
19206;DHT22;59358;52.134;5.596;2022-07-29T02:30:43;15.80;99.90
19206;DHT22;59358;52.134;5.596;2022-07-29T02:33:14;15.90;99.90
19206;DHT22;59358;52.134;5.596;2022-07-29T02:35:43;15.80;99.90
19206;DHT22;59358;52.134;5.596;2022-07-29T02:38:14;15.80;99.90
19206;DHT22;59358;52.134;5.596;2022-07-29T02:41:00;15.90;99.90
19206;DHT22;59358;52.134;5.596;2022-07-29T02:43:28;15.80;99.90
19206;DHT22;59358;52.134;5.596;2022-07-29T02:45:57;15.80;99.90
19206;DHT22;59358;52.134;5.596;2022-07-29T02:48:34;15.80;99.90
19206;DHT22;59358;52.134;5.596;2022-07-29T02:51:06;15.60;99.90
19206;DHT22;59358;52.134;5.596;2022-07-29T02:53:35;15.60;99.90
19206;DHT22;59358;52.134;5.596;2022-07-29T02:56:06;15.60;99.90
19206;DHT22;59358;52.134;5.596;2022-07-29T02:58:38;15.60;99.90
19206;DHT22;59358;52.134;5.596;2022-07-29T03:01:11;15.70;99.90
19206;DHT22;59358;52.134;5.596;2022-07-29T03:03:39;15.70;99.90
19206;DHT22;59358;52.134;5.596;2022-07-29T03:06:09;15.70;99.90
19206;DHT22;59358;52.134;5.596;2022-07-29T03:08:37;15.70;99.90
19206;DHT22;59358;52.134;5.596;2022-07-29T03:11:04;15.70;99.90
19206;DHT22;59358;52.134;5.596;2022-07-29T03:13:31;15.60;99.90
19206;DHT22;59358;52.134;5.596;2022-07-29T03:15:59;15.60;99.90
19206;DHT22;59358;52.134;5.596;2022-07-29T03:18:26;15.70;99.90
19206;DHT22;59358;52.134;5.596;2022-07-29T03:20:54;15.60;99.90
19206;DHT22;59358;52.134;5.596;2022-07-29T03:23:22;15.60;99.90
19206;DHT22;59358;52.134;5.596;2022-07-29T03:25:49;15.70;99.90
19206;DHT22;59358;52.134;5.596;2022-07-29T03:28:16;15.70;99.90
19206;DHT22;59358;52.134;5.596;2022-07-29T03:30:43;15.70;99.90
19206;DHT22;59358;52.134;5.596;2022-07-29T03:33:10;15.70;99.90
19206;DHT22;59358;52.134;5.596;2022-07-29T03:35:36;15.70;99.90
19206;DHT22;59358;52.134;5.596;2022-07-29T03:38:04;15.70;99.90
19206;DHT22;59358;52.134;5.596;2022-07-29T03:40:35;15.60;99.90
19206;DHT22;59358;52.134;5.596;2022-07-29T03:43:04;15.60;99.90
19206;DHT22;59358;52.134;5.596;2022-07-29T03:45:33;15.60;99.90
19206;DHT22;59358;52.134;5.596;2022-07-29T03:48:03;15.60;99.90
19206;DHT22;59358;52.134;5.596;2022-07-29T03:50:33;15.60;99.90
19206;DHT22;59358;52.134;5.596;2022-07-29T03:53:01;15.60;99.90
19206;DHT22;59358;52.134;5.596;2022-07-29T03:55:42;15.60;99.90
19206;DHT22;59358;52.134;5.596;2022-07-29T03:58:11;15.60;99.90
19206;DHT22;59358;52.134;5.596;2022-07-29T04:00:39;15.70;99.90
19206;DHT22;59358;52.134;5.596;2022-07-29T04:03:06;15.70;99.90
19206;DHT22;59358;52.134;5.596;2022-07-29T04:05:33;15.70;99.90
19206;DHT22;59358;52.134;5.596;2022-07-29T04:08:00;15.70;99.90
19206;DHT22;59358;52.134;5.596;2022-07-29T04:10:27;15.70;99.90
19206;DHT22;59358;52.134;5.596;2022-07-29T04:12:55;15.70;99.90
19206;DHT22;59358;52.134;5.596;2022-07-29T04:15:22;15.60;99.90
19206;DHT22;59358;52.134;5.596;2022-07-29T04:17:49;15.60;99.90
19206;DHT22;59358;52.134;5.596;2022-07-29T04:20:16;15.60;99.90
19206;DHT22;59358;52.134;5.596;2022-07-29T04:22:42;15.70;99.90
19206;DHT22;59358;52.134;5.596;2022-07-29T04:25:09;15.70;99.90
19206;DHT22;59358;52.134;5.596;2022-07-29T04:27:36;15.70;99.90
19206;DHT22;59358;52.134;5.596;2022-07-29T04:30:24;15.70;99.90
19206;DHT22;59358;52.134;5.596;2022-07-29T04:32:50;15.70;99.90
19206;DHT22;59358;52.134;5.596;2022-07-29T04:35:18;15.80;99.90
19206;DHT22;59358;52.134;5.596;2022-07-29T04:37:45;15.70;99.90
19206;DHT22;59358;52.134;5.596;2022-07-29T04:40:12;15.70;99.90
19206;DHT22;59358;52.134;5.596;2022-07-29T04:42:38;15.70;99.90
19206;DHT22;59358;52.134;5.596;2022-07-29T04:45:06;15.80;99.90
19206;DHT22;59358;52.134;5.596;2022-07-29T04:47:34;15.80;99.90
19206;DHT22;59358;52.134;5.596;2022-07-29T04:50:01;15.90;99.90
19206;DHT22;59358;52.134;5.596;2022-07-29T04:52:28;15.80;99.90
19206;DHT22;59358;52.134;5.596;2022-07-29T04:54:55;15.90;99.90
19206;DHT22;59358;52.134;5.596;2022-07-29T04:57:21;15.80;99.90
19206;DHT22;59358;52.134;5.596;2022-07-29T04:59:48;15.90;99.90
19206;DHT22;59358;52.134;5.596;2022-07-29T05:02:15;15.90;99.90
19206;DHT22;59358;52.134;5.596;2022-07-29T05:04:43;15.90;99.90
19206;DHT22;59358;52.134;5.596;2022-07-29T05:07:10;15.80;99.90
19206;DHT22;59358;52.134;5.596;2022-07-29T05:09:37;15.80;99.90
19206;DHT22;59358;52.134;5.596;2022-07-29T05:12:04;15.90;99.90
19206;DHT22;59358;52.134;5.596;2022-07-29T05:14:31;15.80;99.90
19206;DHT22;59358;52.134;5.596;2022-07-29T05:16:58;15.80;99.90
19206;DHT22;59358;52.134;5.596;2022-07-29T05:19:24;15.80;99.90
19206;DHT22;59358;52.134;5.596;2022-07-29T05:21:52;15.90;99.90
19206;DHT22;59358;52.134;5.596;2022-07-29T05:24:19;15.90;99.90
19206;DHT22;59358;52.134;5.596;2022-07-29T05:26:46;15.90;99.90
19206;DHT22;59358;52.134;5.596;2022-07-29T05:29:13;16.00;99.90
19206;DHT22;59358;52.134;5.596;2022-07-29T05:31:40;15.90;99.90
19206;DHT22;59358;52.134;5.596;2022-07-29T05:34:07;15.90;99.90
19206;DHT22;59358;52.134;5.596;2022-07-29T05:36:33;16.00;99.90
19206;DHT22;59358;52.134;5.596;2022-07-29T05:39:02;16.00;99.90
19206;DHT22;59358;52.134;5.596;2022-07-29T05:41:31;16.00;99.90
19206;DHT22;59358;52.134;5.596;2022-07-29T05:43:58;15.90;99.90
19206;DHT22;59358;52.134;5.596;2022-07-29T05:46:25;16.00;99.90
19206;DHT22;59358;52.134;5.596;2022-07-29T05:48:52;16.10;99.90
19206;DHT22;59358;52.134;5.596;2022-07-29T05:51:19;16.10;99.90
19206;DHT22;59358;52.134;5.596;2022-07-29T05:53:46;16.10;99.90
19206;DHT22;59358;52.134;5.596;2022-07-29T05:56:14;16.10;99.90
19206;DHT22;59358;52.134;5.596;2022-07-29T05:58:41;16.20;99.90
19206;DHT22;59358;52.134;5.596;2022-07-29T06:01:08;16.20;99.90
19206;DHT22;59358;52.134;5.596;2022-07-29T06:03:35;16.20;99.90
19206;DHT22;59358;52.134;5.596;2022-07-29T06:06:03;16.30;99.90
19206;DHT22;59358;52.134;5.596;2022-07-29T06:08:31;16.20;99.90
19206;DHT22;59358;52.134;5.596;2022-07-29T06:11:00;16.20;99.90
19206;DHT22;59358;52.134;5.596;2022-07-29T06:13:28;16.30;99.90
19206;DHT22;59358;52.134;5.596;2022-07-29T06:15:55;16.30;99.90
19206;DHT22;59358;52.134;5.596;2022-07-29T06:18:22;16.30;99.90
19206;DHT22;59358;52.134;5.596;2022-07-29T06:20:50;16.30;99.90
19206;DHT22;59358;52.134;5.596;2022-07-29T06:23:16;16.30;99.90
19206;DHT22;59358;52.134;5.596;2022-07-29T06:25:43;16.40;99.90
19206;DHT22;59358;52.134;5.596;2022-07-29T06:28:11;16.60;99.90
19206;DHT22;59358;52.134;5.596;2022-07-29T06:30:39;16.80;99.90
19206;DHT22;59358;52.134;5.596;2022-07-29T06:33:06;17.10;99.90
19206;DHT22;59358;52.134;5.596;2022-07-29T06:35:34;17.20;99.90
19206;DHT22;59358;52.134;5.596;2022-07-29T06:38:02;17.10;99.90
19206;DHT22;59358;52.134;5.596;2022-07-29T06:40:29;17.10;99.90
19206;DHT22;59358;52.134;5.596;2022-07-29T06:43:13;17.20;99.90
19206;DHT22;59358;52.134;5.596;2022-07-29T06:45:41;17.40;99.90
19206;DHT22;59358;52.134;5.596;2022-07-29T06:48:08;17.50;99.90
19206;DHT22;59358;52.134;5.596;2022-07-29T06:50:35;17.40;99.90
19206;DHT22;59358;52.134;5.596;2022-07-29T06:53:02;17.60;99.90
19206;DHT22;59358;52.134;5.596;2022-07-29T06:55:29;17.60;99.90
19206;DHT22;59358;52.134;5.596;2022-07-29T06:57:56;17.60;99.90
19206;DHT22;59358;52.134;5.596;2022-07-29T07:00:22;17.50;99.90
19206;DHT22;59358;52.134;5.596;2022-07-29T07:02:50;17.70;99.90
19206;DHT22;59358;52.134;5.596;2022-07-29T07:05:17;17.90;99.90
19206;DHT22;59358;52.134;5.596;2022-07-29T07:07:44;18.30;99.90
19206;DHT22;59358;52.134;5.596;2022-07-29T07:10:11;18.60;99.90
19206;DHT22;59358;52.134;5.596;2022-07-29T07:12:38;18.50;99.90
19206;DHT22;59358;52.134;5.596;2022-07-29T07:15:05;18.50;99.90
19206;DHT22;59358;52.134;5.596;2022-07-29T07:17:32;18.50;99.90
19206;DHT22;59358;52.134;5.596;2022-07-29T07:20:00;18.40;99.90
19206;DHT22;59358;52.134;5.596;2022-07-29T07:22:27;18.20;99.90
19206;DHT22;59358;52.134;5.596;2022-07-29T07:24:54;18.20;99.90
19206;DHT22;59358;52.134;5.596;2022-07-29T07:27:21;18.30;99.90
19206;DHT22;59358;52.134;5.596;2022-07-29T07:29:48;18.10;99.90
19206;DHT22;59358;52.134;5.596;2022-07-29T07:32:14;18.10;99.90
19206;DHT22;59358;52.134;5.596;2022-07-29T07:34:42;18.20;99.90
19206;DHT22;59358;52.134;5.596;2022-07-29T07:37:10;18.40;99.90
19206;DHT22;59358;52.134;5.596;2022-07-29T07:39:37;18.60;99.90
19206;DHT22;59358;52.134;5.596;2022-07-29T07:42:04;18.80;99.90
19206;DHT22;59358;52.134;5.596;2022-07-29T07:44:31;18.80;99.90
19206;DHT22;59358;52.134;5.596;2022-07-29T07:46:58;18.90;99.90
19206;DHT22;59358;52.134;5.596;2022-07-29T07:49:24;18.90;99.90
19206;DHT22;59358;52.134;5.596;2022-07-29T07:51:51;18.90;99.90
19206;DHT22;59358;52.134;5.596;2022-07-29T07:54:20;19.00;99.90
19206;DHT22;59358;52.134;5.596;2022-07-29T07:56:47;19.10;99.90
19206;DHT22;59358;52.134;5.596;2022-07-29T07:59:15;19.40;99.90
19206;DHT22;59358;52.134;5.596;2022-07-29T08:01:41;19.60;99.90
19206;DHT22;59358;52.134;5.596;2022-07-29T08:04:08;19.80;99.90
19206;DHT22;59358;52.134;5.596;2022-07-29T08:06:35;20.00;99.90
19206;DHT22;59358;52.134;5.596;2022-07-29T08:09:03;20.40;99.90
19206;DHT22;59358;52.134;5.596;2022-07-29T08:11:32;20.70;99.90
19206;DHT22;59358;52.134;5.596;2022-07-29T08:13:58;20.60;99.90
19206;DHT22;59358;52.134;5.596;2022-07-29T08:16:26;20.80;99.90
19206;DHT22;59358;52.134;5.596;2022-07-29T08:18:53;21.10;99.90
19206;DHT22;59358;52.134;5.596;2022-07-29T08:21:23;21.40;99.90
19206;DHT22;59358;52.134;5.596;2022-07-29T08:23:51;21.70;99.90
19206;DHT22;59358;52.134;5.596;2022-07-29T08:26:40;22.00;99.90
19206;DHT22;59358;52.134;5.596;2022-07-29T08:29:07;22.30;99.90
19206;DHT22;59358;52.134;5.596;2022-07-29T08:31:33;22.40;99.90
19206;DHT22;59358;52.134;5.596;2022-07-29T08:34:00;22.80;99.90
19206;DHT22;59358;52.134;5.596;2022-07-29T08:36:28;22.70;99.90
19206;DHT22;59358;52.134;5.596;2022-07-29T08:38:55;22.60;99.90
19206;DHT22;59358;52.134;5.596;2022-07-29T08:41:22;22.80;99.90
19206;DHT22;59358;52.134;5.596;2022-07-29T08:43:50;22.90;99.90
19206;DHT22;59358;52.134;5.596;2022-07-29T08:46:18;23.00;99.90
19206;DHT22;59358;52.134;5.596;2022-07-29T08:48:45;22.80;99.90
19206;DHT22;59358;52.134;5.596;2022-07-29T08:51:13;22.80;99.90
19206;DHT22;59358;52.134;5.596;2022-07-29T08:53:42;22.90;99.90
19206;DHT22;59358;52.134;5.596;2022-07-29T08:56:12;23.10;99.90
19206;DHT22;59358;52.134;5.596;2022-07-29T08:58:39;23.10;99.90
19206;DHT22;59358;52.134;5.596;2022-07-29T09:01:08;23.40;99.90
19206;DHT22;59358;52.134;5.596;2022-07-29T09:03:37;23.70;99.90
19206;DHT22;59358;52.134;5.596;2022-07-29T09:06:05;23.30;99.90
19206;DHT22;59358;52.134;5.596;2022-07-29T09:08:33;23.00;99.90
19206;DHT22;59358;52.134;5.596;2022-07-29T09:11:00;23.10;99.90
19206;DHT22;59358;52.134;5.596;2022-07-29T09:13:28;23.40;99.90
19206;DHT22;59358;52.134;5.596;2022-07-29T09:15:56;23.30;99.90
19206;DHT22;59358;52.134;5.596;2022-07-29T09:18:38;23.40;99.90
19206;DHT22;59358;52.134;5.596;2022-07-29T09:21:06;23.30;99.90
19206;DHT22;59358;52.134;5.596;2022-07-29T09:24:01;23.30;99.90
19206;DHT22;59358;52.134;5.596;2022-07-29T09:26:29;23.30;99.90
19206;DHT22;59358;52.134;5.596;2022-07-29T09:28:56;23.30;99.90
19206;DHT22;59358;52.134;5.596;2022-07-29T09:31:32;23.30;99.90
19206;DHT22;59358;52.134;5.596;2022-07-29T09:34:01;23.00;99.90
19206;DHT22;59358;52.134;5.596;2022-07-29T09:36:28;23.00;99.90
19206;DHT22;59358;52.134;5.596;2022-07-29T09:38:59;22.90;99.90
19206;DHT22;59358;52.134;5.596;2022-07-29T09:41:26;22.80;99.90
19206;DHT22;59358;52.134;5.596;2022-07-29T09:43:54;22.70;99.90
19206;DHT22;59358;52.134;5.596;2022-07-29T09:46:22;22.80;99.90
19206;DHT22;59358;52.134;5.596;2022-07-29T09:49:07;22.90;99.90
19206;DHT22;59358;52.134;5.596;2022-07-29T09:51:34;23.10;99.90
19206;DHT22;59358;52.134;5.596;2022-07-29T09:54:01;23.20;99.90
19206;DHT22;59358;52.134;5.596;2022-07-29T09:56:39;23.20;99.90
19206;DHT22;59358;52.134;5.596;2022-07-29T09:59:06;23.30;99.90
19206;DHT22;59358;52.134;5.596;2022-07-29T10:01:33;23.50;99.90
19206;DHT22;59358;52.134;5.596;2022-07-29T10:04:01;23.60;99.90
19206;DHT22;59358;52.134;5.596;2022-07-29T10:06:29;23.60;99.90
19206;DHT22;59358;52.134;5.596;2022-07-29T10:09:07;23.50;99.90
19206;DHT22;59358;52.134;5.596;2022-07-29T10:11:34;23.40;99.90
19206;DHT22;59358;52.134;5.596;2022-07-29T10:14:02;23.40;99.90
19206;DHT22;59358;52.134;5.596;2022-07-29T10:16:29;23.30;99.90
19206;DHT22;59358;52.134;5.596;2022-07-29T10:18:58;23.30;99.90
19206;DHT22;59358;52.134;5.596;2022-07-29T10:21:26;23.60;99.90
19206;DHT22;59358;52.134;5.596;2022-07-29T10:23:57;23.80;99.90
19206;DHT22;59358;52.134;5.596;2022-07-29T10:26:25;23.60;99.90
19206;DHT22;59358;52.134;5.596;2022-07-29T10:28:52;24.20;99.90
19206;DHT22;59358;52.134;5.596;2022-07-29T10:31:25;24.30;99.90
19206;DHT22;59358;52.134;5.596;2022-07-29T10:34:01;24.90;99.40
19206;DHT22;59358;52.134;5.596;2022-07-29T10:36:40;25.30;99.90
19206;DHT22;59358;52.134;5.596;2022-07-29T10:39:19;25.20;98.70
19206;DHT22;59358;52.134;5.596;2022-07-29T10:42:02;24.90;99.20
19206;DHT22;59358;52.134;5.596;2022-07-29T10:44:32;25.10;99.90
19206;DHT22;59358;52.134;5.596;2022-07-29T10:46:59;25.00;99.00
19206;DHT22;59358;52.134;5.596;2022-07-29T10:49:27;24.90;98.70
19206;DHT22;59358;52.134;5.596;2022-07-29T10:52:00;24.70;99.20
19206;DHT22;59358;52.134;5.596;2022-07-29T10:54:45;24.70;99.30
19206;DHT22;59358;52.134;5.596;2022-07-29T10:57:16;24.60;98.90
19206;DHT22;59358;52.134;5.596;2022-07-29T10:59:45;24.60;99.80
19206;DHT22;59358;52.134;5.596;2022-07-29T11:02:41;24.80;99.80
19206;DHT22;59358;52.134;5.596;2022-07-29T11:05:10;24.70;99.20
19206;DHT22;59358;52.134;5.596;2022-07-29T11:07:39;24.90;99.90
19206;DHT22;59358;52.134;5.596;2022-07-29T11:10:23;25.10;99.60
19206;DHT22;59358;52.134;5.596;2022-07-29T11:12:50;25.40;99.20
19206;DHT22;59358;52.134;5.596;2022-07-29T11:15:19;25.40;99.40
19206;DHT22;59358;52.134;5.596;2022-07-29T11:18:07;25.50;99.20
19206;DHT22;59358;52.134;5.596;2022-07-29T11:20:36;25.30;99.30
19206;DHT22;59358;52.134;5.596;2022-07-29T11:23:21;25.30;99.00
19206;DHT22;59358;52.134;5.596;2022-07-29T11:26:15;25.10;98.90
19206;DHT22;59358;52.134;5.596;2022-07-29T11:28:54;25.00;98.60
19206;DHT22;59358;52.134;5.596;2022-07-29T11:31:38;24.80;99.20
19206;DHT22;59358;52.134;5.596;2022-07-29T11:34:17;24.70;99.60
19206;DHT22;59358;52.134;5.596;2022-07-29T11:37:16;24.60;99.90
19206;DHT22;59358;52.134;5.596;2022-07-29T11:39:44;24.70;99.40
19206;DHT22;59358;52.134;5.596;2022-07-29T11:42:38;24.50;99.70
19206;DHT22;59358;52.134;5.596;2022-07-29T11:45:07;24.60;99.90
19206;DHT22;59358;52.134;5.596;2022-07-29T11:47:37;24.70;99.70
19206;DHT22;59358;52.134;5.596;2022-07-29T11:50:06;24.80;99.50
19206;DHT22;59358;52.134;5.596;2022-07-29T11:52:34;25.00;99.50
19206;DHT22;59358;52.134;5.596;2022-07-29T11:55:04;24.90;98.90
19206;DHT22;59358;52.134;5.596;2022-07-29T11:57:31;24.80;98.90
19206;DHT22;59358;52.134;5.596;2022-07-29T12:00:01;25.00;98.70
19206;DHT22;59358;52.134;5.596;2022-07-29T12:02:38;25.40;98.40
19206;DHT22;59358;52.134;5.596;2022-07-29T12:05:08;25.80;98.80
19206;DHT22;59358;52.134;5.596;2022-07-29T12:07:35;26.00;97.40
19206;DHT22;59358;52.134;5.596;2022-07-29T12:10:03;26.00;98.00
19206;DHT22;59358;52.134;5.596;2022-07-29T12:12:30;26.10;97.80
19206;DHT22;59358;52.134;5.596;2022-07-29T12:14:57;26.10;97.90
19206;DHT22;59358;52.134;5.596;2022-07-29T12:17:29;26.10;97.50
19206;DHT22;59358;52.134;5.596;2022-07-29T12:19:58;26.00;97.70
19206;DHT22;59358;52.134;5.596;2022-07-29T12:22:25;26.20;97.40
19206;DHT22;59358;52.134;5.596;2022-07-29T12:24:53;26.10;97.80
19206;DHT22;59358;52.134;5.596;2022-07-29T12:27:20;25.90;98.00
19206;DHT22;59358;52.134;5.596;2022-07-29T12:29:55;26.00;98.10
19206;DHT22;59358;52.134;5.596;2022-07-29T12:32:32;26.10;97.70
19206;DHT22;59358;52.134;5.596;2022-07-29T12:35:02;26.50;97.00
19206;DHT22;59358;52.134;5.596;2022-07-29T12:37:29;26.60;96.80
19206;DHT22;59358;52.134;5.596;2022-07-29T12:39:56;26.60;97.30
19206;DHT22;59358;52.134;5.596;2022-07-29T12:42:23;26.60;96.90
19206;DHT22;59358;52.134;5.596;2022-07-29T12:44:50;26.40;97.20
19206;DHT22;59358;52.134;5.596;2022-07-29T12:47:18;26.30;96.40
19206;DHT22;59358;52.134;5.596;2022-07-29T12:49:47;26.50;96.80
19206;DHT22;59358;52.134;5.596;2022-07-29T12:52:27;26.50;97.00
19206;DHT22;59358;52.134;5.596;2022-07-29T12:54:54;26.60;97.20
19206;DHT22;59358;52.134;5.596;2022-07-29T12:57:23;27.10;97.00
19206;DHT22;59358;52.134;5.596;2022-07-29T13:00:08;27.20;97.60
19206;DHT22;59358;52.134;5.596;2022-07-29T13:02:36;27.70;95.70
19206;DHT22;59358;52.134;5.596;2022-07-29T13:05:06;27.60;96.80
19206;DHT22;59358;52.134;5.596;2022-07-29T13:07:34;27.70;96.20
19206;DHT22;59358;52.134;5.596;2022-07-29T13:10:13;27.80;95.60
19206;DHT22;59358;52.134;5.596;2022-07-29T13:13:02;27.70;95.90
19206;DHT22;59358;52.134;5.596;2022-07-29T13:15:30;27.90;95.00
19206;DHT22;59358;52.134;5.596;2022-07-29T13:17:57;27.80;95.40
19206;DHT22;59358;52.134;5.596;2022-07-29T13:20:27;27.40;96.10
19206;DHT22;59358;52.134;5.596;2022-07-29T13:22:55;27.00;96.00
19206;DHT22;59358;52.134;5.596;2022-07-29T13:25:26;26.50;96.70
19206;DHT22;59358;52.134;5.596;2022-07-29T13:27:54;26.30;97.60
19206;DHT22;59358;52.134;5.596;2022-07-29T13:30:22;26.60;97.00
19206;DHT22;59358;52.134;5.596;2022-07-29T13:32:49;27.10;98.10
19206;DHT22;59358;52.134;5.596;2022-07-29T13:35:17;27.30;96.20
19206;DHT22;59358;52.134;5.596;2022-07-29T13:37:45;27.50;95.30
19206;DHT22;59358;52.134;5.596;2022-07-29T13:40:13;27.50;96.50
19206;DHT22;59358;52.134;5.596;2022-07-29T13:42:40;27.50;95.80
19206;DHT22;59358;52.134;5.596;2022-07-29T13:45:09;27.70;95.20
19206;DHT22;59358;52.134;5.596;2022-07-29T13:47:36;27.80;95.70
19206;DHT22;59358;52.134;5.596;2022-07-29T13:50:04;27.50;94.50
19206;DHT22;59358;52.134;5.596;2022-07-29T13:52:32;27.60;95.90
19206;DHT22;59358;52.134;5.596;2022-07-29T13:55:00;27.50;94.00
19206;DHT22;59358;52.134;5.596;2022-07-29T13:57:27;27.50;94.00
19206;DHT22;59358;52.134;5.596;2022-07-29T13:59:55;27.50;93.50
19206;DHT22;59358;52.134;5.596;2022-07-29T14:02:22;27.70;93.20
19206;DHT22;59358;52.134;5.596;2022-07-29T14:04:50;27.90;93.50
19206;DHT22;59358;52.134;5.596;2022-07-29T14:07:17;28.00;93.20
19206;DHT22;59358;52.134;5.596;2022-07-29T14:09:43;28.30;93.60
19206;DHT22;59358;52.134;5.596;2022-07-29T14:12:11;28.40;92.70
19206;DHT22;59358;52.134;5.596;2022-07-29T14:14:38;28.80;92.30
19206;DHT22;59358;52.134;5.596;2022-07-29T14:17:05;28.60;92.70
19206;DHT22;59358;52.134;5.596;2022-07-29T14:19:32;28.70;92.90
19206;DHT22;59358;52.134;5.596;2022-07-29T14:22:01;28.70;93.20
19206;DHT22;59358;52.134;5.596;2022-07-29T14:24:32;28.50;93.30
19206;DHT22;59358;52.134;5.596;2022-07-29T14:26:58;28.50;92.10
19206;DHT22;59358;52.134;5.596;2022-07-29T14:29:27;28.70;92.50
19206;DHT22;59358;52.134;5.596;2022-07-29T14:31:54;28.90;93.10
19206;DHT22;59358;52.134;5.596;2022-07-29T14:34:22;28.90;92.50
19206;DHT22;59358;52.134;5.596;2022-07-29T14:36:49;29.20;92.60
19206;DHT22;59358;52.134;5.596;2022-07-29T14:39:16;29.50;91.00
19206;DHT22;59358;52.134;5.596;2022-07-29T14:41:43;29.40;91.50
19206;DHT22;59358;52.134;5.596;2022-07-29T14:44:12;30.10;91.00
19206;DHT22;59358;52.134;5.596;2022-07-29T14:46:40;30.10;90.60
19206;DHT22;59358;52.134;5.596;2022-07-29T14:49:07;30.70;88.90
19206;DHT22;59358;52.134;5.596;2022-07-29T14:51:34;30.90;88.50
19206;DHT22;59358;52.134;5.596;2022-07-29T14:54:01;30.70;86.00
19206;DHT22;59358;52.134;5.596;2022-07-29T14:56:28;31.00;85.40
19206;DHT22;59358;52.134;5.596;2022-07-29T14:58:56;31.10;84.20
19206;DHT22;59358;52.134;5.596;2022-07-29T15:01:25;30.60;86.00
19206;DHT22;59358;52.134;5.596;2022-07-29T15:03:53;30.90;84.10
19206;DHT22;59358;52.134;5.596;2022-07-29T15:06:19;31.00;82.60
19206;DHT22;59358;52.134;5.596;2022-07-29T15:08:46;30.80;83.80
19206;DHT22;59358;52.134;5.596;2022-07-29T15:11:13;30.90;84.10
19206;DHT22;59358;52.134;5.596;2022-07-29T15:13:39;31.00;85.00
19206;DHT22;59358;52.134;5.596;2022-07-29T15:16:07;31.60;85.60
19206;DHT22;59358;52.134;5.596;2022-07-29T15:18:34;31.90;81.30
19206;DHT22;59358;52.134;5.596;2022-07-29T15:21:04;32.10;79.60
19206;DHT22;59358;52.134;5.596;2022-07-29T15:23:32;32.30;79.60
19206;DHT22;59358;52.134;5.596;2022-07-29T15:26:00;32.30;80.90
19206;DHT22;59358;52.134;5.596;2022-07-29T15:28:30;32.10;82.60
19206;DHT22;59358;52.134;5.596;2022-07-29T15:30:57;32.80;79.40
19206;DHT22;59358;52.134;5.596;2022-07-29T15:33:25;33.60;78.60
19206;DHT22;59358;52.134;5.596;2022-07-29T15:35:53;33.50;79.60
19206;DHT22;59358;52.134;5.596;2022-07-29T15:38:23;33.00;80.30
19206;DHT22;59358;52.134;5.596;2022-07-29T15:40:50;33.10;79.70
19206;DHT22;59358;52.134;5.596;2022-07-29T15:43:17;33.80;79.60